createdAt,value
2022-12-22T00:03:00.328Z,101.40
2022-12-22T00:13:23.896Z,101.90
2022-12-22T00:23:44.792Z,100.33
2022-12-22T00:34:08.030Z,102.03
2022-12-22T00:44:30.919Z,83.30
2022-12-22T00:54:51.543Z,85.70
2022-12-22T01:05:12.329Z,106.27
2022-12-22T01:15:39.317Z,83.70
2022-12-22T01:26:03.509Z,88.83
2022-12-22T01:36:24.109Z,102.43
2022-12-22T01:46:56.166Z,116.67
2022-12-22T01:57:16.763Z,162.53
2022-12-22T02:08:16.822Z,190.30
2022-12-22T02:18:59.657Z,118.80
2022-12-22T02:29:23.797Z,117.70
2022-12-22T02:40:22.311Z,170.60
2022-12-22T02:50:49.098Z,248.13
2022-12-22T03:01:11.895Z,101.17
2022-12-22T03:11:32.789Z,89.77
2022-12-22T03:21:53.256Z,107.57
2022-12-22T03:31:58.070Z,90.83
2022-12-22T03:42:19.826Z,74.63
2022-12-22T03:52:24.317Z,80.93
2022-12-22T04:02:29.762Z,86.97
2022-12-22T04:12:55.030Z,79.23
2022-12-22T04:22:57.751Z,68.53
2022-12-22T04:33:00.418Z,72.43
2022-12-22T04:43:02.608Z,54.80
2022-12-22T04:53:05.678Z,66.63
2022-12-22T05:03:08.571Z,62.60
2022-12-22T05:13:11.061Z,56.93
2022-12-22T05:23:13.175Z,69.57
2022-12-22T05:33:15.419Z,55.20
2022-12-22T05:43:17.946Z,55.27
2022-12-22T05:53:20.117Z,62.30
2022-12-22T06:03:27.081Z,53.70
2022-12-22T06:13:37.165Z,56.83
2022-12-22T06:23:43.247Z,51.67
2022-12-22T06:33:45.783Z,47.80
2022-12-22T06:43:50.396Z,52.43
2022-12-22T06:53:57.940Z,47.73
2022-12-22T07:04:03.018Z,47.05
2022-12-22T07:14:05.204Z,38.00
2022-12-22T07:24:07.933Z,40.77
2022-12-22T07:34:12.198Z,37.63
2022-12-22T07:44:19.524Z,31.37
2022-12-22T07:54:21.713Z,32.43
2022-12-22T08:04:26.155Z,38.10
2022-12-22T08:14:31.667Z,38.47
2022-12-22T08:24:38.672Z,36.07
2022-12-22T08:34:43.455Z,32.13
2022-12-22T08:44:56.367Z,31.73
2022-12-22T08:55:02.391Z,32.73
2022-12-22T09:05:12.821Z,33.33
2022-12-22T09:15:18.555Z,30.03
2022-12-22T09:25:20.885Z,34.17
2022-12-22T09:35:23.010Z,32.70
2022-12-22T09:45:31.045Z,25.07
2022-12-22T09:55:38.819Z,30.10
2022-12-22T10:05:54.154Z,30.73
2022-12-22T10:15:58.925Z,32.53
2022-12-22T10:36:33.491Z,30.87
2022-12-22T10:46:52.593Z,40.10
2022-12-22T10:57:13.700Z,37.93
2022-12-22T11:07:19.845Z,36.80
2022-12-22T11:17:45.104Z,42.33
2022-12-22T11:27:54.596Z,35.40
2022-12-22T11:38:28.723Z,40.93
2022-12-22T11:48:44.344Z,41.37
2022-12-22T11:59:07.794Z,39.07
2022-12-22T12:09:34.577Z,38.13
2022-12-22T12:20:04.169Z,40.37
2022-12-22T12:30:36.907Z,41.43
2022-12-22T12:40:41.343Z,35.23
2022-12-22T12:50:47.460Z,29.03
2022-12-22T13:00:58.821Z,24.30
2022-12-22T13:11:01.382Z,29.63
2022-12-22T13:21:51.664Z,30.93
2022-12-22T13:31:56.138Z,36.43
2022-12-22T13:41:58.739Z,34.97
2022-12-22T13:52:05.721Z,34.30
2022-12-22T14:02:10.271Z,28.07
2022-12-22T14:12:20.981Z,36.07
2022-12-22T14:22:29.623Z,40.30
2022-12-22T14:32:39.439Z,36.13
2022-12-22T14:42:44.735Z,40.77
2022-12-22T14:52:53.336Z,35.20
2022-12-22T15:03:03.863Z,34.03
2022-12-22T15:13:11.354Z,35.20
2022-12-22T15:23:18.678Z,34.27
2022-12-22T15:33:25.158Z,34.03
2022-12-22T15:54:01.340Z,34.00
2022-12-22T16:04:07.426Z,35.67
2022-12-22T16:14:13.638Z,39.63
2022-12-22T16:24:22.930Z,43.70
2022-12-22T16:34:27.318Z,36.70
2022-12-22T16:44:32.927Z,35.43
2022-12-22T16:54:37.475Z,38.97
2022-12-22T17:04:39.584Z,35.27
2022-12-22T17:14:41.849Z,39.47
2022-12-22T17:24:44.023Z,40.33
2022-12-22T17:34:49.106Z,39.57
2022-12-22T17:44:54.894Z,29.07
2022-12-22T17:55:02.667Z,37.70
2022-12-22T18:05:05.241Z,36.53
2022-12-22T18:15:17.785Z,35.40
2022-12-22T18:25:26.754Z,36.53
2022-12-22T18:35:29.270Z,41.87
2022-12-22T18:45:34.076Z,35.00
2022-12-22T18:55:38.432Z,38.33
2022-12-22T19:05:46.004Z,29.43
2022-12-22T19:15:59.673Z,34.50
2022-12-22T19:26:08.837Z,29.40
2022-12-22T19:36:17.837Z,30.83
2022-12-22T19:46:29.445Z,33.70
2022-12-22T19:56:31.807Z,26.27
2022-12-22T20:06:39.114Z,31.57
2022-12-22T20:16:46.618Z,26.40
2022-12-22T20:26:54.293Z,28.73
2022-12-22T20:36:57.675Z,26.67
2022-12-22T20:46:59.749Z,31.27
2022-12-22T20:57:01.928Z,26.07
2022-12-22T21:07:06.283Z,31.20
2022-12-22T21:17:19.838Z,28.40
2022-12-22T21:27:22.222Z,25.17
2022-12-22T21:37:24.949Z,27.03
2022-12-22T21:47:29.255Z,26.33
2022-12-22T21:57:36.012Z,24.93
2022-12-22T22:07:42.575Z,25.23
2022-12-22T22:17:47.157Z,31.97
2022-12-22T22:27:52.938Z,31.30
2022-12-22T22:37:56.119Z,30.53
2022-12-22T22:48:06.322Z,28.80
2022-12-22T22:58:14.510Z,29.27
2022-12-22T23:08:18.778Z,33.97
2022-12-22T23:18:25.915Z,31.17
2022-12-22T23:28:28.182Z,26.60
2022-12-22T23:38:30.278Z,29.33
2022-12-22T23:48:32.324Z,28.63
2022-12-22T23:58:34.364Z,28.73
